Time;durP1;ratioP1;P1;durP2;ratioP2;P2;SDS_P1;SDS_P2;PMS_P1;PMS_P2;Temp;Humidity;BMP_temperature;BMP_pressure;BME280_temperature;BME280_humidity;BME280_pressure;Samples;Min_cycle;Max_cycle;Signal;HPM_P1;HPM_P2
2023/03/18 00:00:12;;;;;;;12.93;4.85;;;;;;;10.94;90.01;100380.94;5033006;28;20045;-54
2023/03/18 00:02:39;;;;;;;15.85;4.53;;;;;;;10.85;89.90;100382.75;5033304;28;20050;-53
2023/03/18 00:05:07;;;;;;;13.63;5.30;;;;;;;10.96;89.99;100397.53;5033780;28;20044;-54
2023/03/18 00:07:36;;;;;;;16.58;5.75;;;;;;;10.83;90.54;100397.19;5032023;28;20053;-51
2023/03/18 00:10:04;;;;;;;19.25;5.35;;;;;;;10.83;91.11;100390.03;5031638;28;20084;-53
2023/03/18 00:12:32;;;;;;;12.95;5.55;;;;;;;10.86;90.98;100400.34;5034003;28;20041;-50
2023/03/18 00:14:59;;;;;;;21.52;6.30;;;;;;;10.93;91.71;100395.19;5034858;28;20037;-54
2023/03/18 00:17:26;;;;;;;17.48;6.72;;;;;;;10.85;91.56;100405.81;5030059;28;20065;-51
2023/03/18 00:19:53;;;;;;;23.08;6.97;;;;;;;10.72;91.43;100419.56;5034787;28;20056;-55
2023/03/18 00:22:20;;;;;;;18.02;6.70;;;;;;;10.78;91.24;100410.94;5030463;28;20045;-50
2023/03/18 00:24:47;;;;;;;19.98;7.05;;;;;;;10.78;91.71;100404.81;5034030;28;20549;-50
2023/03/18 00:27:14;;;;;;;18.52;7.45;;;;;;;10.70;91.46;100417.06;5027561;28;20053;-52
2023/03/18 00:29:41;;;;;;;21.85;7.72;;;;;;;10.73;91.94;100402.63;5034138;28;20055;-50
2023/03/18 00:32:08;;;;;;;24.20;8.25;;;;;;;10.76;92.26;100402.31;5030038;28;20041;-51
2023/03/18 00:34:35;;;;;;;25.77;8.40;;;;;;;10.79;92.43;100409.94;5034442;28;20041;-53
2023/03/18 00:37:02;;;;;;;25.08;8.77;;;;;;;10.85;92.85;100403.16;5025568;28;20071;-52
2023/03/18 00:39:31;;;;;;;21.83;9.00;;;;;;;10.81;92.60;100393.88;5034292;28;20042;-52
2023/03/18 00:42:06;;;;;;;23.85;9.18;;;;;;;10.87;91.63;100390.56;5030033;28;20039;-53
2023/03/18 00:44:34;;;;;;;25.48;9.27;;;;;;;10.73;92.14;100384.06;5034140;28;20087;-51
2023/03/18 00:47:01;;;;;;;24.63;9.38;;;;;;;10.78;92.47;100386.22;5029706;28;20041;-54
2023/03/18 00:49:28;;;;;;;23.25;9.05;;;;;;;10.72;92.83;100390.38;5034296;28;20073;-53
2023/03/18 00:51:54;;;;;;;23.20;9.68;;;;;;;10.85;92.26;100398.66;5029669;28;20135;-54
2023/03/18 00:54:23;;;;;;;23.60;9.98;;;;;;;10.88;91.72;100384.25;5033844;28;20052;-51
2023/03/18 00:56:50;;;;;;;28.00;10.30;;;;;;;10.84;92.79;100372.28;5029228;28;21989;-51
2023/03/18 00:59:17;;;;;;;25.70;9.50;;;;;;;10.76;92.64;100383.75;5033624;28;20356;-52
2023/03/18 01:01:44;;;;;;;27.02;9.35;;;;;;;10.79;93.71;100380.75;5030108;28;20095;-53
2023/03/18 01:04:10;;;;;;;25.98;10.63;;;;;;;10.74;94.89;100402.47;5032801;28;20091;-51
2023/03/18 01:06:38;;;;;;;38.53;11.32;;;;;;;10.72;93.69;100412.41;5031238;28;20438;-51
2023/03/18 01:09:09;;;;;;;26.60;9.60;;;;;;;10.70;93.78;100408.28;5031831;28;20414;-53
2023/03/18 01:11:37;;;;;;;20.92;9.18;;;;;;;10.71;93.53;100407.28;5031836;28;20054;-51
2023/03/18 01:14:05;;;;;;;29.90;9.07;;;;;;;10.67;93.92;100408.59;5031574;28;20084;-50
2023/03/18 01:16:31;;;;;;;23.90;10.25;;;;;;;10.72;93.86;100398.34;5032921;28;20079;-53
2023/03/18 01:18:59;;;;;;;26.05;9.10;;;;;;;10.61;93.74;100396.81;5030843;28;20049;-52
2023/03/18 01:21:26;;;;;;;28.05;9.80;;;;;;;10.49;95.15;100398.09;5033691;28;20103;-51
2023/03/18 01:23:59;;;;;;;27.58;8.88;;;;;;;10.58;95.43;100389.16;5030049;28;20373;-51
2023/03/18 01:26:26;;;;;;;24.90;10.10;;;;;;;10.63;95.72;100396.66;5031091;28;20184;-51
2023/03/18 01:28:55;;;;;;;22.25;9.00;;;;;;;10.52;95.52;100387.19;5032503;28;20068;-52
2023/03/18 01:31:24;;;;;;;29.80;10.85;;;;;;;10.67;95.05;100400.63;5033596;28;20076;-50
2023/03/18 01:33:53;;;;;;;21.58;8.23;;;;;;;10.73;94.89;100405.28;5029306;28;20049;-51
2023/03/18 01:36:20;;;;;;;22.70;8.10;;;;;;;10.78;94.30;100408.28;5033094;28;20398;-50
2023/03/18 01:38:59;;;;;;;19.27;8.02;;;;;;;10.78;95.12;100399.50;5027316;28;20041;-54
2023/03/18 01:41:27;;;;;;;23.17;7.57;;;;;;;10.82;94.40;100401.63;5033327;28;20052;-53
2023/03/18 01:43:54;;;;;;;25.27;7.75;;;;;;;10.79;94.58;100393.19;5029150;28;20052;-49
2023/03/18 01:46:40;;;;;;;19.90;6.95;;;;;;;10.76;94.56;100397.00;5033103;28;20459;-50
2023/03/18 01:49:19;;;;;;;19.05;7.30;;;;;;;10.83;94.83;100397.19;5028800;28;20466;-51
2023/03/18 01:51:56;;;;;;;19.38;7.15;;;;;;;10.86;95.46;100399.50;5032959;28;20050;-50
2023/03/18 01:54:26;;;;;;;13.27;6.18;;;;;;;10.87;95.71;100399.34;5028504;28;20404;-50
2023/03/18 01:56:53;;;;;;;16.77;6.30;;;;;;;10.78;95.13;100389.69;5032571;28;20083;-51
2023/03/18 01:59:23;;;;;;;15.88;7.03;;;;;;;10.84;94.96;100389.06;5028742;28;20433;-51
2023/03/18 02:01:54;;;;;;;14.27;6.07;;;;;;;10.80;95.15;100382.41;5032434;28;20380;-50
2023/03/18 02:04:26;;;;;;;17.00;6.90;;;;;;;10.76;94.91;100386.38;5029011;28;20069;-50
2023/03/18 02:06:52;;;;;;;17.85;5.97;;;;;;;10.74;95.89;100388.38;5032894;28;20050;-52
2023/03/18 02:09:19;;;;;;;18.20;6.20;;;;;;;10.69;96.34;100374.78;5028373;28;20220;-52
2023/03/18 02:11:50;;;;;;;16.05;5.90;;;;;;;10.61;96.65;100362.34;5032818;28;20050;-51
2023/03/18 02:14:24;;;;;;;21.88;6.30;;;;;;;10.64;96.58;100369.13;5028804;28;20495;-52
2023/03/18 02:17:11;;;;;;;14.10;5.90;;;;;;;10.43;97.21;100372.25;5013376;28;20134;-50
2023/03/18 02:19:53;;;;;;;17.08;6.53;;;;;;;10.43;97.96;100372.25;5008894;28;20060;-49
2023/03/18 02:22:42;;;;;;;15.48;6.38;;;;;;;10.41;98.01;100377.72;5013252;28;20046;-52
2023/03/18 02:27:53;;;;;;;18.70;6.47;;;;;;;10.35;98.42;100379.19;5104315;27;20643;-51
2023/03/18 02:30:26;;;;;;;17.67;6.57;;;;;;;10.30;98.89;100383.28;5062133;28;20106;-52
2023/03/18 02:32:57;;;;;;;17.25;6.20;;;;;;;10.26;99.13;100380.13;5066247;28;20098;-50
2023/03/18 02:35:26;;;;;;;18.70;6.82;;;;;;;10.25;99.68;100381.09;5070172;28;20048;-52
2023/03/18 02:37:53;;;;;;;18.83;6.68;;;;;;;10.20;99.48;100378.09;5066506;28;20044;-51
2023/03/18 02:40:27;;;;;;;19.42;7.15;;;;;;;10.20;99.99;100370.13;5066157;28;20430;-50
2023/03/18 02:42:54;;;;;;;13.52;6.45;;;;;;;10.18;100.00;100380.06;5070209;28;20047;-51
2023/03/18 02:45:51;;;;;;;17.67;6.95;;;;;;;10.15;100.00;100381.25;5073936;28;20064;-53
2023/03/18 02:48:22;;;;;;;19.92;7.00;;;;;;;10.15;100.00;100383.88;5089978;28;20101;-53
2023/03/18 02:50:49;;;;;;;18.40;6.88;;;;;;;10.09;100.00;100387.16;5086067;28;20097;-53
2023/03/18 02:53:15;;;;;;;17.65;7.07;;;;;;;9.96;100.00;100395.56;5090221;28;20064;-51
2023/03/18 02:55:43;;;;;;;15.95;7.40;;;;;;;9.99;100.00;100394.44;5085554;28;20079;-53
2023/03/18 02:58:10;;;;;;;19.13;7.10;;;;;;;9.97;100.00;100399.06;5089935;28;20032;-51
2023/03/18 03:00:37;;;;;;;20.25;7.13;;;;;;;9.99;100.00;100405.84;5085047;28;20048;-53
2023/03/18 03:03:04;;;;;;;20.25;7.05;;;;;;;9.93;100.00;100397.69;5090104;28;20452;-50
2023/03/18 03:05:33;;;;;;;26.10;7.72;;;;;;;9.83;100.00;100402.28;5085510;28;20059;-53
2023/03/18 03:08:01;;;;;;;18.58;8.13;;;;;;;9.79;100.00;100391.19;5071480;28;20041;-52
2023/03/18 03:10:30;;;;;;;16.60;7.57;;;;;;;9.83;100.00;100397.00;5064958;28;20410;-53
2023/03/18 03:12:58;;;;;;;17.67;8.23;;;;;;;9.82;100.00;100392.66;5069970;28;20399;-53
2023/03/18 03:15:25;;;;;;;17.67;8.13;;;;;;;9.84;100.00;100399.50;5073966;28;20094;-53
2023/03/18 03:17:57;;;;;;;20.13;8.60;;;;;;;9.83;100.00;100400.47;5089939;28;20048;-52
2023/03/18 03:20:23;;;;;;;18.52;7.95;;;;;;;9.77;100.00;100406.41;5085214;28;20513;-52
2023/03/18 03:22:50;;;;;;;17.80;7.82;;;;;;;9.74;100.00;100404.06;5089748;28;20085;-53
2023/03/18 03:25:18;;;;;;;21.15;8.77;;;;;;;9.74;100.00;100404.06;5084923;28;20044;-52
2023/03/18 03:27:44;;;;;;;17.92;8.05;;;;;;;9.69;100.00;100409.81;5089137;28;20048;-53
2023/03/18 03:30:13;;;;;;;18.77;8.07;;;;;;;9.61;100.00;100407.94;5084973;28;20528;-51
2023/03/18 03:32:41;;;;;;;20.42;8.48;;;;;;;9.60;100.00;100406.31;5089650;28;20047;-51
2023/03/18 03:35:13;;;;;;;23.23;8.68;;;;;;;9.61;100.00;100402.66;5085112;28;20389;-52
2023/03/18 03:37:41;;;;;;;20.33;8.35;;;;;;;9.59;100.00;100401.16;5084199;28;20071;-53
2023/03/18 03:40:10;;;;;;;17.08;8.13;;;;;;;9.59;100.00;100398.50;5071137;28;20406;-53
2023/03/18 03:42:37;;;;;;;22.10;8.25;;;;;;;9.54;100.00;100406.09;5076060;28;20383;-53
2023/03/18 03:45:04;;;;;;;19.50;8.32;;;;;;;9.51;100.00;100414.34;5071152;28;20048;-52
2023/03/18 03:47:32;;;;;;;17.77;7.90;;;;;;;9.51;100.00;100416.97;5075558;28;20041;-51
2023/03/18 03:50:00;;;;;;;23.20;8.20;;;;;;;9.51;100.00;100420.44;5071666;28;20072;-52
2023/03/18 03:52:27;;;;;;;18.45;8.23;;;;;;;9.52;100.00;100427.41;5075921;28;20052;-52
2023/03/18 03:54:55;;;;;;;19.88;8.20;;;;;;;9.49;100.00;100433.00;5071098;28;20048;-54
2023/03/18 03:57:23;;;;;;;20.38;8.48;;;;;;;9.49;100.00;100429.53;5075433;28;20124;-52
2023/03/18 03:59:50;;;;;;;26.92;9.02;;;;;;;9.57;100.00;100429.63;5071413;28;20094;-51
2023/03/18 04:02:22;;;;;;;25.75;9.07;;;;;;;9.60;100.00;100437.22;5075180;28;20455;-54
2023/03/18 04:04:49;;;;;;;21.58;8.80;;;;;;;9.49;100.00;100435.66;5070932;28;20571;-53
2023/03/18 04:07:23;;;;;;;22.63;9.30;;;;;;;9.51;100.00;100444.28;5061918;28;20049;-53
2023/03/18 04:09:50;;;;;;;21.90;8.95;;;;;;;9.43;100.00;100446.06;5050806;28;20518;-54
2023/03/18 04:12:18;;;;;;;20.95;9.20;;;;;;;9.51;100.00;100439.00;5055419;28;20040;-53
2023/03/18 04:14:51;;;;;;;20.42;8.98;;;;;;;9.55;100.00;100443.00;5055196;28;20513;-53
2023/03/18 04:17:19;;;;;;;22.42;9.20;;;;;;;9.58;100.00;100445.31;5074112;28;20102;-51
2023/03/18 04:19:46;;;;;;;18.27;9.68;;;;;;;9.64;100.00;100448.34;5070693;28;20040;-52
2023/03/18 04:22:14;;;;;;;19.13;9.45;;;;;;;9.57;100.00;100450.81;5075165;28;20139;-53
2023/03/18 04:24:41;;;;;;;21.60;9.15;;;;;;;9.60;100.00;100450.47;5070533;28;20049;-53
2023/03/18 04:27:08;;;;;;;32.00;10.93;;;;;;;9.70;100.00;100445.09;5074696;28;20052;-51
2023/03/18 04:29:34;;;;;;;23.35;9.48;;;;;;;9.70;100.00;100459.16;5053844;28;20033;-52
2023/03/18 04:32:01;;;;;;;21.00;10.23;;;;;;;9.68;100.00;100466.44;5075039;28;20386;-53
2023/03/18 04:34:29;;;;;;;22.45;10.02;;;;;;;9.67;100.00;100463.94;5070678;28;20087;-53
2023/03/18 04:36:56;;;;;;;23.73;10.35;;;;;;;9.71;100.00;100460.00;5074799;28;20044;-54
2023/03/18 04:39:25;;;;;;;24.33;11.63;;;;;;;9.56;100.00;100452.59;5070375;28;20055;-51
2023/03/18 04:41:53;;;;;;;19.70;10.32;;;;;;;9.57;100.00;100459.56;5071489;28;20051;-53
2023/03/18 04:44:20;;;;;;;21.83;10.07;;;;;;;9.54;100.00;100459.03;5074913;28;20044;-51
2023/03/18 04:46:52;;;;;;;22.48;10.95;;;;;;;9.57;100.00;100467.53;5049947;28;20048;-53
2023/03/18 04:49:21;;;;;;;21.48;11.05;;;;;;;9.57;100.00;100467.53;5053951;28;20099;-53
2023/03/18 04:51:48;;;;;;;22.08;10.60;;;;;;;9.56;100.00;100467.66;5049897;28;20040;-53
2023/03/18 04:54:22;;;;;;;20.40;10.30;;;;;;;9.61;100.00;100475.97;5054459;28;20061;-54
2023/03/18 04:56:53;;;;;;;24.83;11.27;;;;;;;9.57;100.00;100475.47;5048707;28;20067;-53
2023/03/18 04:59:20;;;;;;;24.60;11.13;;;;;;;9.52;100.00;100482.22;5054522;28;20052;-53
2023/03/18 05:01:47;;;;;;;33.15;12.05;;;;;;;9.61;100.00;100479.47;5048957;28;20071;-52
2023/03/18 05:04:15;;;;;;;26.23;11.38;;;;;;;9.60;100.00;100480.47;5053419;28;20513;-52
2023/03/18 05:06:47;;;;;;;;;;;;;;;9.59;100.00;100484.06;5058237;28;20121;-52
2023/03/18 05:09:14;;;;;;;25.67;11.38;;;;;;;9.59;100.00;100488.56;5074139;28;20007;-52
2023/03/18 05:11:42;;;;;;;22.60;11.57;;;;;;;9.55;100.00;100482.72;5069364;28;20494;-52
2023/03/18 05:14:17;;;;;;;23.33;11.50;;;;;;;9.63;100.00;100483.78;5074363;28;20053;-53
2023/03/18 05:16:46;;;;;;;22.00;11.13;;;;;;;9.60;100.00;100490.19;5069305;28;20048;-53
2023/03/18 05:19:13;;;;;;;23.10;11.55;;;;;;;9.65;100.00;100482.63;5073869;28;20049;-52
2023/03/18 05:21:47;;;;;;;30.83;12.00;;;;;;;9.71;100.00;100489.94;5069353;28;20052;-53
2023/03/18 05:24:16;;;;;;;24.67;11.07;;;;;;;9.77;100.00;100491.19;5073856;28;20459;-53
2023/03/18 05:26:43;;;;;;;23.10;10.40;;;;;;;9.78;100.00;100495.47;5068991;28;20056;-53
2023/03/18 05:29:10;;;;;;;23.20;11.05;;;;;;;9.76;100.00;100492.97;5073676;28;20383;-54
2023/03/18 05:31:44;;;;;;;22.65;10.98;;;;;;;9.76;100.00;100500.09;5069337;28;20060;-51
2023/03/18 05:34:12;;;;;;;26.40;11.27;;;;;;;9.80;100.00;100493.50;5073352;28;20457;-51
2023/03/18 05:36:41;;;;;;;26.98;11.27;;;;;;;9.81;100.00;100492.50;5068857;28;20047;-53
2023/03/18 05:39:09;;;;;;;30.10;12.45;;;;;;;9.84;100.00;100496.66;5073694;28;20055;-51
2023/03/18 05:41:38;;;;;;;28.50;11.73;;;;;;;9.84;100.00;100501.97;5069381;28;20057;-51
2023/03/18 05:44:08;;;;;;;24.65;11.70;;;;;;;9.81;100.00;100505.75;5073432;28;20063;-54
2023/03/18 05:46:37;;;;;;;24.30;11.27;;;;;;;9.81;100.00;100503.13;5068707;28;20048;-52
2023/03/18 05:49:09;;;;;;;23.63;11.65;;;;;;;9.70;100.00;100503.38;5073136;28;20079;-53
2023/03/18 05:51:46;;;;;;;29.58;11.57;;;;;;;9.69;100.00;100513.09;5069008;28;20045;-53
2023/03/18 05:54:23;;;;;;;26.05;12.07;;;;;;;9.66;100.00;100505.50;5073278;28;20067;-53
2023/03/18 05:57:10;;;;;;;24.08;11.75;;;;;;;9.56;100.00;100510.84;5068699;28;20561;-50
2023/03/18 05:59:37;;;;;;;28.77;11.45;;;;;;;9.55;100.00;100518.94;5073338;28;20051;-51
2023/03/18 06:02:04;;;;;;;29.33;11.38;;;;;;;9.52;100.00;100524.56;5068210;28;20044;-53
2023/03/18 06:04:31;;;;;;;26.13;10.90;;;;;;;9.49;100.00;100528.34;5073374;28;20064;-53
2023/03/18 06:06:58;;;;;;;20.92;10.98;;;;;;;9.46;100.00;100533.09;5058675;28;20048;-51
2023/03/18 06:09:25;;;;;;;26.98;11.45;;;;;;;9.47;100.00;100534.78;5068292;28;20045;-52
2023/03/18 06:11:52;;;;;;;20.20;10.90;;;;;;;9.47;100.00;100529.50;5048839;28;20052;-51
2023/03/18 06:14:20;;;;;;;26.50;11.30;;;;;;;9.46;100.00;100533.97;5053505;28;20049;-51
2023/03/18 06:16:46;;;;;;;22.38;11.68;;;;;;;9.48;100.00;100532.00;5048147;28;20052;-53
2023/03/18 06:19:13;;;;;;;24.80;11.00;;;;;;;9.53;100.00;100531.53;5052942;28;20458;-53
2023/03/18 06:21:40;;;;;;;23.80;10.98;;;;;;;9.51;100.00;100536.13;5048827;28;20095;-51
2023/03/18 06:24:08;;;;;;;20.80;10.65;;;;;;;9.59;100.00;100538.88;5053076;28;20055;-53
2023/03/18 06:26:35;;;;;;;25.92;10.45;;;;;;;9.62;100.00;100541.19;5047876;28;20057;-53
2023/03/18 06:29:04;;;;;;;21.40;10.35;;;;;;;9.61;100.00;100532.44;5053375;28;20051;-53
2023/03/18 06:31:31;;;;;;;22.85;9.55;;;;;;;9.69;100.00;100539.59;5085875;28;20044;-53
2023/03/18 06:33:57;;;;;;;18.90;10.23;;;;;;;9.69;100.00;100538.78;5092992;28;20051;-53
2023/03/18 06:36:30;;;;;;;;;;;;;;;9.73;100.00;100542.78;5089272;28;20059;-54
2023/03/18 06:38:58;;;;;;;23.70;10.13;;;;;;;9.67;100.00;100536.28;5093142;28;20014;-53
2023/03/18 06:41:25;;;;;;;23.00;10.52;;;;;;;9.72;100.00;100536.66;5085187;28;20081;-53
2023/03/18 06:44:04;;;;;;;20.13;10.65;;;;;;;9.74;100.00;100534.69;5093395;28;20044;-53
2023/03/18 06:46:31;;;;;;;20.83;10.50;;;;;;;9.77;100.00;100546.81;5068911;28;20653;-54
2023/03/18 06:49:00;;;;;;;19.50;9.77;;;;;;;9.74;100.00;100550.56;5055515;28;20044;-52
2023/03/18 06:51:32;;;;;;;21.05;9.82;;;;;;;9.81;100.00;100550.81;5068439;28;20190;-53
2023/03/18 06:53:59;;;;;;;19.27;9.82;;;;;;;9.70;100.00;100549.22;5072845;28;20041;-53
2023/03/18 06:56:32;;;;;;;20.45;10.27;;;;;;;9.76;100.00;100545.13;5059095;28;20135;-53
2023/03/18 06:59:09;;;;;;;21.85;10.32;;;;;;;9.89;100.00;100552.69;5071717;28;20389;-51
2023/03/18 07:01:37;;;;;;;26.00;10.55;;;;;;;10.02;100.00;100553.09;5067562;28;20206;-50
2023/03/18 07:04:05;;;;;;;21.20;9.50;;;;;;;10.05;100.00;100549.31;5072552;28;20072;-50
2023/03/18 07:06:32;;;;;;;22.50;8.93;;;;;;;10.17;100.00;100553.38;5052901;28;20115;-50
2023/03/18 07:09:00;;;;;;;23.98;10.00;;;;;;;10.17;100.00;100561.34;5067406;28;20427;-50
2023/03/18 07:11:27;;;;;;;19.30;9.52;;;;;;;10.38;99.63;100569.75;5047659;28;20037;-52
2023/03/18 07:13:55;;;;;;;22.17;9.40;;;;;;;10.41;98.80;100567.81;5055365;28;20053;-50
2023/03/18 07:16:27;;;;;;;19.17;9.68;;;;;;;10.44;98.91;100564.81;5069314;28;20466;-52
2023/03/18 07:18:54;;;;;;;20.30;9.85;;;;;;;10.43;98.29;100555.22;5076299;28;20127;-58
2023/03/18 07:21:21;;;;;;;22.88;9.98;;;;;;;10.52;98.45;100557.75;5073327;28;20072;-53
2023/03/18 07:23:48;;;;;;;22.25;9.27;;;;;;;10.66;97.56;100564.28;5075321;28;20041;-50
2023/03/18 07:26:16;;;;;;;19.38;9.75;;;;;;;10.75;96.68;100560.69;5073526;28;20102;-59
2023/03/18 07:28:43;;;;;;;22.13;9.65;;;;;;;10.67;96.81;100563.28;5073693;28;20045;-50
2023/03/18 07:31:10;;;;;;;21.08;9.75;;;;;;;10.81;96.27;100569.81;5075488;28;20053;-53
2023/03/18 07:33:37;;;;;;;21.38;9.95;;;;;;;10.83;95.87;100573.13;5072695;28;20049;-51
2023/03/18 07:36:04;;;;;;;20.60;9.50;;;;;;;10.95;95.06;100569.22;5076041;28;20052;-52
2023/03/18 07:38:30;;;;;;;21.73;10.00;;;;;;;11.10;94.54;100576.56;5071490;28;20048;-54
2023/03/18 07:40:57;;;;;;;24.85;10.30;;;;;;;11.20;94.63;100585.19;5074491;28;20102;-53
2023/03/18 07:43:25;;;;;;;19.65;9.70;;;;;;;11.28;94.23;100584.41;5068077;28;20123;-54
2023/03/18 07:45:51;;;;;;;19.50;8.70;;;;;;;11.48;92.92;100592.91;5075609;28;20394;-53
2023/03/18 07:48:18;;;;;;;22.83;9.90;;;;;;;11.45;93.03;100588.75;5071245;28;20041;-52
2023/03/18 07:50:45;;;;;;;21.80;9.23;;;;;;;11.48;92.32;100600.88;5075642;28;20496;-54
2023/03/18 07:53:12;;;;;;;20.23;10.13;;;;;;;11.65;91.96;100588.44;5071317;28;20055;-54
2023/03/18 07:55:40;;;;;;;23.08;9.27;;;;;;;11.68;91.83;100598.75;5075567;28;20045;-52
2023/03/18 07:58:08;;;;;;;17.35;8.45;;;;;;;11.62;92.45;100599.41;5070868;28;20043;-51
2023/03/18 08:00:34;;;;;;;21.75;9.13;;;;;;;11.86;90.84;100602.09;5074437;28;20413;-52
2023/03/18 08:03:02;;;;;;;20.25;8.73;;;;;;;11.85;91.41;100602.25;5070601;28;20052;-54
2023/03/18 08:05:30;;;;;;;17.30;8.45;;;;;;;11.88;91.56;100607.25;5075422;28;20048;-53
2023/03/18 08:07:58;;;;;;;24.00;8.32;;;;;;;12.06;90.11;100607.06;5070704;28;20040;-54
2023/03/18 08:10:25;;;;;;;16.70;7.60;;;;;;;12.15;90.45;100610.56;5075111;28;20125;-51
2023/03/18 08:12:51;;;;;;;20.00;8.13;;;;;;;12.27;89.32;100611.91;5070788;28;20052;-51
2023/03/18 08:15:21;;;;;;;18.85;7.68;;;;;;;12.32;89.18;100612.22;5075285;28;20064;-53
2023/03/18 08:17:48;;;;;;;19.40;8.30;;;;;;;12.61;85.77;100614.31;5070770;28;20047;-53
2023/03/18 08:20:15;;;;;;;20.08;7.97;;;;;;;12.64;86.66;100623.78;5075208;28;20048;-53
2023/03/18 08:22:42;;;;;;;19.65;7.25;;;;;;;12.73;87.08;100621.94;5070316;28;20064;-53
2023/03/18 08:25:10;;;;;;;14.60;7.00;;;;;;;12.79;84.33;100623.94;5074647;28;20049;-53
2023/03/18 08:27:37;;;;;;;18.48;7.32;;;;;;;12.99;83.85;100629.69;5070122;28;20071;-53
2023/03/18 08:30:05;;;;;;;17.27;6.70;;;;;;;12.96;84.08;100628.19;5074286;28;20048;-52
2023/03/18 08:32:32;;;;;;;17.02;6.05;;;;;;;13.06;81.84;100628.81;5043578;28;20487;-50
2023/03/18 08:35:00;;;;;;;18.60;6.68;;;;;;;13.06;81.59;100639.47;5055006;28;20056;-52
2023/03/18 08:37:28;;;;;;;18.58;6.10;;;;;;;13.13;82.73;100638.75;5050139;28;20498;-50
2023/03/18 08:39:54;;;;;;;14.05;6.38;;;;;;;13.18;80.56;100633.75;5054424;28;20053;-50
2023/03/18 08:42:21;;;;;;;14.75;6.03;;;;;;;13.24;82.07;100633.03;5049855;28;20099;-51
2023/03/18 08:44:48;;;;;;;16.38;6.32;;;;;;;13.31;82.54;100639.38;5054801;28;20041;-50
2023/03/18 08:47:15;;;;;;;16.00;6.00;;;;;;;13.43;82.13;100634.50;5074751;28;20123;-52
2023/03/18 08:49:42;;;;;;;15.00;6.15;;;;;;;13.55;80.85;100635.75;5069998;28;20071;-51
2023/03/18 08:52:09;;;;;;;13.50;5.32;;;;;;;13.61;80.65;100636.88;5074737;28;20380;-51
2023/03/18 08:54:36;;;;;;;15.18;6.28;;;;;;;13.52;79.57;100635.28;5069916;28;20045;-52
2023/03/18 08:57:03;;;;;;;12.75;5.30;;;;;;;13.52;80.74;100638.78;5074276;28;20045;-53
2023/03/18 08:59:30;;;;;;;16.00;5.50;;;;;;;13.50;80.61;100632.78;5069916;28;20045;-52
2023/03/18 09:01:57;;;;;;;15.02;4.93;;;;;;;13.70;78.36;100638.50;5073688;28;20079;-49
2023/03/18 09:04:24;;;;;;;16.98;5.95;;;;;;;13.89;77.88;100637.19;5069783;28;20418;-50
2023/03/18 09:06:51;;;;;;;13.02;6.10;;;;;;;13.94;79.09;100632.16;5059977;28;20049;-50
2023/03/18 09:09:18;;;;;;;13.57;5.72;;;;;;;14.17;78.07;100632.13;5050216;28;20045;-53
2023/03/18 09:11:45;;;;;;;16.88;5.72;;;;;;;14.51;75.69;100637.97;5053749;28;20053;-51
2023/03/18 09:14:12;;;;;;;16.88;6.13;;;;;;;14.59;75.84;100644.09;5065154;28;20573;-52
2023/03/18 09:16:39;;;;;;;14.35;5.43;;;;;;;14.70;73.12;100648.16;5072861;28;20049;-51
2023/03/18 09:19:06;;;;;;;13.73;5.53;;;;;;;14.84;74.10;100659.84;5069659;28;20037;-52
2023/03/18 09:21:33;;;;;;;12.93;5.28;;;;;;;14.91;71.64;100652.75;5073879;28;20044;-52
2023/03/18 09:24:01;;;;;;;14.68;5.55;;;;;;;15.26;70.29;100650.34;5069433;28;20049;-53
2023/03/18 09:26:27;;;;;;;13.20;5.15;;;;;;;15.27;69.75;100660.00;5072902;28;20136;-53
2023/03/18 09:28:54;;;;;;;15.63;5.60;;;;;;;15.09;69.29;100655.03;5069414;28;20539;-50
2023/03/18 09:31:21;;;;;;;13.70;5.03;;;;;;;15.09;68.40;100651.56;5072473;28;20068;-50
2023/03/18 09:33:48;;;;;;;13.82;5.13;;;;;;;15.55;66.16;100648.59;5069449;28;20044;-51
2023/03/18 09:36:15;;;;;;;12.32;5.13;;;;;;;16.48;63.39;100643.28;5072015;28;20044;-50
2023/03/18 09:38:41;;;;;;;11.35;4.65;;;;;;;17.39;61.11;100639.66;5068259;28;20154;-52
2023/03/18 09:44:01;;;;;;;13.10;4.20;;;;;;;19.03;54.24;100656.25;5086262;28;20608;-52
2023/03/18 09:46:54;;;;;;;12.45;4.20;;;;;;;20.21;50.52;100642.38;5089440;28;20052;-52
2023/03/18 09:49:48;;;;;;;10.40;4.32;;;;;;;21.66;46.60;100648.22;5090183;28;20040;-52
2023/03/18 09:52:26;;;;;;;12.27;4.28;;;;;;;22.33;45.66;100664.25;5090112;28;20058;-52
2023/03/18 09:55:34;;;;;;;11.82;4.30;;;;;;;23.24;41.90;100660.31;5085715;28;20150;-53
2023/03/18 09:58:04;;;;;;;11.15;4.15;;;;;;;22.52;42.97;100656.88;5082129;28;20410;-51
2023/03/18 10:00:36;;;;;;;12.00;4.13;;;;;;;22.56;42.38;100644.53;5065143;28;20091;-51
2023/03/18 10:03:28;;;;;;;12.07;4.00;;;;;;;23.77;40.47;100646.41;5069780;28;20041;-53
2023/03/18 10:06:04;;;;;;;11.57;4.18;;;;;;;24.97;38.37;100652.59;5065636;28;20044;-52
2023/03/18 10:08:45;;;;;;;11.90;4.00;;;;;;;24.79;36.93;100661.84;5070152;28;20439;-51
2023/03/18 10:11:47;;;;;;;10.88;4.18;;;;;;;26.03;36.35;100649.44;5065207;28;20040;-53
2023/03/18 10:17:31;;;;;;;10.43;4.07;;;;;;;26.86;34.08;100655.41;5070352;28;20386;-50
2023/03/18 10:20:03;;;;;;;11.75;3.75;;;;;;;27.34;32.31;100667.91;5066010;28;20139;-54
2023/03/18 10:23:08;;;;;;;12.10;3.80;;;;;;;27.50;31.63;100657.84;5070488;28;20045;-50
2023/03/18 10:25:45;;;;;;;10.90;3.85;;;;;;;28.06;31.10;100661.75;5065245;28;20059;-51
2023/03/18 10:28:53;;;;;;;10.80;4.43;;;;;;;28.30;30.01;100662.81;5070408;28;20439;-54
2023/03/18 10:31:59;;;;;;;10.43;3.60;;;;;;;27.86;30.62;100662.53;5046891;28;20124;-55
2023/03/18 10:34:37;;;;;;;10.45;3.40;;;;;;;27.93;30.92;100663.09;5067643;28;20457;-55
2023/03/18 10:37:16;;;;;;;9.35;3.45;;;;;;;27.81;30.50;100660.59;5070494;28;20398;-53
2023/03/18 10:39:45;;;;;;;9.27;3.67;;;;;;;27.98;30.88;100659.56;5065708;28;20041;-54
2023/03/18 10:42:30;;;;;;;8.77;3.10;;;;;;;27.29;31.29;100654.25;5070055;28;20080;-54
2023/03/18 10:45:14;;;;;;;9.80;3.13;;;;;;;26.43;31.79;100647.25;5065316;28;20041;-54
2023/03/18 10:47:45;;;;;;;13.70;3.83;;;;;;;25.91;33.98;100642.50;5068597;28;20047;-55
2023/03/18 10:50:35;;;;;;;9.55;3.17;;;;;;;25.22;34.22;100654.81;5070078;28;20071;-55
2023/03/18 10:53:18;;;;;;;8.18;3.00;;;;;;;25.58;34.55;100647.91;5067820;28;20048;-54
2023/03/18 10:55:57;;;;;;;7.63;2.80;;;;;;;23.72;36.38;100649.03;5065434;28;20122;-52
2023/03/18 10:58:28;;;;;;;9.10;2.72;;;;;;;23.05;38.81;100640.69;5069896;28;20052;-51
2023/03/18 11:00:55;;;;;;;9.05;3.40;;;;;;;22.89;40.22;100651.19;5064559;28;20377;-53
2023/03/18 11:03:28;;;;;;;11.50;4.97;;;;;;;23.15;39.47;100641.72;5069747;28;20048;-53
2023/03/18 11:05:57;;;;;;;10.20;3.35;;;;;;;23.12;39.75;100644.09;5065028;28;20329;-53
2023/03/18 11:08:39;;;;;;;11.35;3.40;;;;;;;22.19;40.43;100647.44;5069531;28;20098;-53
2023/03/18 11:11:27;;;;;;;9.73;3.40;;;;;;;21.66;41.13;100642.84;5064610;28;20052;-53
2023/03/18 11:13:56;;;;;;;10.13;3.47;;;;;;;21.50;42.76;100640.78;5069206;28;20037;-53
2023/03/18 11:16:29;;;;;;;9.82;3.38;;;;;;;22.26;42.49;100643.78;5064407;28;20049;-53
2023/03/18 11:18:57;;;;;;;8.30;3.47;;;;;;;22.48;41.41;100647.56;5069573;28;20471;-53
2023/03/18 11:21:27;;;;;;;10.82;3.45;;;;;;;23.12;39.89;100649.50;5064423;28;20114;-53
2023/03/18 11:24:23;;;;;;;11.13;3.22;;;;;;;23.32;38.72;100647.22;5069240;28;20049;-53
2023/03/18 11:26:52;;;;;;;9.80;3.37;;;;;;;22.08;40.08;100656.31;5059944;28;20045;-56
2023/03/18 11:29:24;;;;;;;9.02;3.33;;;;;;;22.40;41.14;100654.16;5056245;28;20486;-56
2023/03/18 11:31:56;;;;;;;7.50;3.20;;;;;;;23.47;39.79;100657.50;5051512;28;20049;-53
2023/03/18 11:34:26;;;;;;;12.65;3.58;;;;;;;24.11;38.46;100654.59;5055953;28;20048;-52
2023/03/18 11:36:57;;;;;;;7.88;3.00;;;;;;;24.60;35.76;100662.16;5050969;28;20049;-54
2023/03/18 11:39:27;;;;;;;9.07;3.25;;;;;;;24.92;36.09;100664.19;5055767;28;20558;-54